• Join FlightAware (Why Join?)
  • Login
  • US Flag 
06:23PM EDT


 

Airport Tracker/Info


-or-


 

Live Flight TrackerFlight Track Log ✈ N111YF ✈ 10-Jun-2013 ✈ KTUS - KPHX

Flight Track Log - Related Links

Times and Time Zones

All times are in EDT time to prevent confusion due to time zone crossing. See the N111YF flight status page for this flight to view local times or setup timezone preferences in your user account.

Time Position Orientation Groundspeed Altitude Reporting Facility
EDT Latitude Longitude Course Direction KTS MPH feet Rate Location/Type
06:47PM 32.1328 -110.9975 328° Northwest 132 152 4,500  Level Albuquerque Center
06:48PM 32.1778 -111.0306 328° Northwest 136 157 6,700 1,380 Climbing Albuquerque Center
06:49PM 32.1958 -111.0428 330° Northwest 136 157 7,300 1,080 Climbing Albuquerque Center
06:49PM 32.2119 -111.0517 335° Northwest 150 173 7,700 1,260 Climbing Albuquerque Center
06:50PM 32.2342 -111.0628 337° Northwest 143 165 8,600 1,260 Climbing Albuquerque Center
06:51PM 32.2789 -111.0753 347° North 158 182 9,900 1,200 Climbing Albuquerque Center
06:52PM 32.3200 -111.1042 329° Northwest 169 194 11,100 1,140 Climbing Albuquerque Center
06:53PM 32.3617 -111.1333 329° Northwest 172 198 12,300 780 Climbing Albuquerque Center
06:54PM 32.4103 -111.1633 332° Northwest 190 219 12,700 180 Climbing Albuquerque Center
06:55PM 32.4761 -111.2192 324° Northwest 234 269 12,700  Level Albuquerque Center
06:56PM 32.5342 -111.2664 326° Northwest 249 287 12,700  Level Albuquerque Center
06:57PM 32.5942 -111.3142 326° Northwest 257 296 12,700 -60 Level Albuquerque Center
06:58PM 32.6497 -111.3653 322° Northwest 254 292 12,600 -60 Descending Albuquerque Center
06:59PM 32.7125 -111.4061 331° Northwest 257 296 12,600  Level Albuquerque Center
07:00PM 32.7706 -111.4542 325° Northwest 255 293 12,600  Level Albuquerque Center
07:01PM 32.8283 -111.5031 325° Northwest 255 293 12,600 -120 Level Albuquerque Center
07:02PM 32.8853 -111.5539 323° Northwest 256 295 12,400 -660 Descending Albuquerque Center
07:03PM 32.9458 -111.6094 322° Northwest 273 314 11,300 -1,080 Descending Albuquerque Center
07:04PM 33.0228 -111.6697 327° Northwest 276 318 10,300 -1,020 Descending Albuquerque Center
07:05PM 33.0839 -111.7181 326° Northwest 264 304 9,300 -1,320 Descending Albuquerque Center
07:06PM 33.1514 -111.7500 338° Northwest 267 307 7,700 -1,440 Descending Albuquerque Center
07:07PM 33.2214 -111.7789 341° North 264 304 6,400 -1,080 Descending Albuquerque Center
07:08PM 33.2758 -111.8161 330° Northwest 228 262 5,500 -1,260 Descending Albuquerque Center
07:09PM 33.3281 -111.8506 331° Northwest 219 252 3,900 -1,320 Descending Albuquerque Center
07:10PM 33.3822 -111.8903 329° Northwest 228 262 2,800 -960 Descending Albuquerque Center
07:11PM 33.4167 -111.9333 314° West 199 229 2,300 -780 Descending Phoenix TRACON
07:12PM 33.4333 -111.9667 301° West 145 167 1,600 -720 Descending Phoenix TRACON
07:14PM 33.4333 -112.0000 320° Northwest  Level FlightAware Approximate